sensor_id;sensor_type;location;lat;lon;timestamp;pressure;altitude;pressure_sealevel;temperature;humidity
58967;BME280;44744;51.894;5.080;2023-02-18T00:00:37;102358.44;;;9.48;89.75
58967;BME280;44744;51.894;5.080;2023-02-18T00:01:38;102358.64;;;9.46;89.62
58967;BME280;44744;51.894;5.080;2023-02-18T00:02:39;102355.52;;;9.45;89.69
58967;BME280;44744;51.894;5.080;2023-02-18T00:04:54;102359.80;;;9.43;89.71
58967;BME280;44744;51.894;5.080;2023-02-18T00:05:54;102360.74;;;9.41;89.63
58967;BME280;44744;51.894;5.080;2023-02-18T00:06:55;102358.30;;;9.39;89.59
58967;BME280;44744;51.894;5.080;2023-02-18T00:07:55;102357.80;;;9.38;89.57
58967;BME280;44744;51.894;5.080;2023-02-18T00:08:58;102353.77;;;9.37;89.70
58967;BME280;44744;51.894;5.080;2023-02-18T00:09:58;102355.91;;;9.36;89.64
58967;BME280;44744;51.894;5.080;2023-02-18T00:10:59;102352.64;;;9.33;89.63
58967;BME280;44744;51.894;5.080;2023-02-18T00:11:59;102351.44;;;9.32;89.65
58967;BME280;44744;51.894;5.080;2023-02-18T00:13:00;102350.42;;;9.30;89.68
58967;BME280;44744;51.894;5.080;2023-02-18T00:14:02;102348.19;;;9.28;89.65
58967;BME280;44744;51.894;5.080;2023-02-18T00:15:03;102345.75;;;9.27;89.65
58967;BME280;44744;51.894;5.080;2023-02-18T00:16:07;102342.27;;;9.24;89.69
58967;BME280;44744;51.894;5.080;2023-02-18T00:17:07;102343.54;;;9.23;89.69
58967;BME280;44744;51.894;5.080;2023-02-18T00:18:08;102343.57;;;9.21;89.77
58967;BME280;44744;51.894;5.080;2023-02-18T00:19:14;102336.38;;;9.20;89.80
58967;BME280;44744;51.894;5.080;2023-02-18T00:20:15;102335.88;;;9.18;89.72
58967;BME280;44744;51.894;5.080;2023-02-18T00:21:16;102341.92;;;9.16;89.67
58967;BME280;44744;51.894;5.080;2023-02-18T00:22:25;102340.37;;;9.16;89.78
58967;BME280;44744;51.894;5.080;2023-02-18T00:23:25;102340.05;;;9.15;89.88
58967;BME280;44744;51.894;5.080;2023-02-18T00:24:26;102338.83;;;9.14;89.84
58967;BME280;44744;51.894;5.080;2023-02-18T00:25:26;102337.11;;;9.12;89.82
58967;BME280;44744;51.894;5.080;2023-02-18T00:26:27;102337.29;;;9.12;90.04
58967;BME280;44744;51.894;5.080;2023-02-18T00:28:06;102338.18;;;9.11;89.92
58967;BME280;44744;51.894;5.080;2023-02-18T00:34:59;102332.89;;;8.97;90.27
58967;BME280;44744;51.894;5.080;2023-02-18T00:36:49;102332.20;;;8.96;90.26
58967;BME280;44744;51.894;5.080;2023-02-18T00:37:56;102328.05;;;8.93;90.34
58967;BME280;44744;51.894;5.080;2023-02-18T00:38:58;102326.31;;;8.92;90.39
58967;BME280;44744;51.894;5.080;2023-02-18T00:39:59;102324.90;;;8.92;90.47
58967;BME280;44744;51.894;5.080;2023-02-18T00:41:21;102321.36;;;8.93;90.51
58967;BME280;44744;51.894;5.080;2023-02-18T00:42:22;102324.36;;;8.93;90.57
58967;BME280;44744;51.894;5.080;2023-02-18T00:43:22;102322.79;;;8.92;90.58
58967;BME280;44744;51.894;5.080;2023-02-18T00:44:23;102320.86;;;8.91;90.64
58967;BME280;44744;51.894;5.080;2023-02-18T00:45:23;102318.39;;;8.91;90.56
58967;BME280;44744;51.894;5.080;2023-02-18T00:46:24;102314.48;;;8.92;90.64
58967;BME280;44744;51.894;5.080;2023-02-18T00:47:25;102314.15;;;8.91;90.68
58967;BME280;44744;51.894;5.080;2023-02-18T00:48:25;102312.73;;;8.92;90.76
58967;BME280;44744;51.894;5.080;2023-02-18T00:49:25;102307.25;;;8.92;90.83
58967;BME280;44744;51.894;5.080;2023-02-18T00:50:26;102308.65;;;8.93;90.86
58967;BME280;44744;51.894;5.080;2023-02-18T00:51:27;102305.44;;;8.94;90.79
58967;BME280;44744;51.894;5.080;2023-02-18T00:52:27;102299.43;;;8.94;90.91
58967;BME280;44744;51.894;5.080;2023-02-18T00:53:28;102298.38;;;8.95;90.90
58967;BME280;44744;51.894;5.080;2023-02-18T00:54:29;102294.68;;;8.94;90.99
58967;BME280;44744;51.894;5.080;2023-02-18T00:55:29;102289.52;;;8.95;91.02
58967;BME280;44744;51.894;5.080;2023-02-18T00:56:30;102284.73;;;8.96;91.18
58967;BME280;44744;51.894;5.080;2023-02-18T00:57:31;102285.79;;;8.97;91.11
58967;BME280;44744;51.894;5.080;2023-02-18T00:58:32;102285.77;;;8.97;91.14
58967;BME280;44744;51.894;5.080;2023-02-18T00:59:32;102285.21;;;8.98;91.11
58967;BME280;44744;51.894;5.080;2023-02-18T01:00:33;102285.91;;;8.99;91.16
58967;BME280;44744;51.894;5.080;2023-02-18T01:01:34;102285.67;;;9.01;91.24
58967;BME280;44744;51.894;5.080;2023-02-18T01:02:34;102285.66;;;9.02;91.43
58967;BME280;44744;51.894;5.080;2023-02-18T01:03:35;102286.67;;;9.04;91.53
58967;BME280;44744;51.894;5.080;2023-02-18T01:04:36;102289.50;;;9.03;91.53
58967;BME280;44744;51.894;5.080;2023-02-18T01:05:49;102288.95;;;9.04;91.49
58967;BME280;44744;51.894;5.080;2023-02-18T01:08:27;102284.55;;;9.04;91.61
58967;BME280;44744;51.894;5.080;2023-02-18T01:09:28;102286.11;;;9.05;91.66
58967;BME280;44744;51.894;5.080;2023-02-18T01:10:28;102285.03;;;9.06;91.78
58967;BME280;44744;51.894;5.080;2023-02-18T01:16:20;102284.94;;;9.09;92.07
58967;BME280;44744;51.894;5.080;2023-02-18T01:17:20;102285.44;;;9.10;92.11
58967;BME280;44744;51.894;5.080;2023-02-18T01:18:21;102288.94;;;9.12;92.17
58967;BME280;44744;51.894;5.080;2023-02-18T01:19:24;102286.29;;;9.12;92.19
58967;BME280;44744;51.894;5.080;2023-02-18T01:20:24;102284.30;;;9.13;92.20
58967;BME280;44744;51.894;5.080;2023-02-18T01:21:25;102284.08;;;9.15;92.22
58967;BME280;44744;51.894;5.080;2023-02-18T01:22:26;102287.94;;;9.16;92.28
58967;BME280;44744;51.894;5.080;2023-02-18T01:23:26;102287.73;;;9.18;92.23
58967;BME280;44744;51.894;5.080;2023-02-18T01:24:27;102285.42;;;9.18;92.29
58967;BME280;44744;51.894;5.080;2023-02-18T01:25:27;102283.13;;;9.18;92.34
58967;BME280;44744;51.894;5.080;2023-02-18T01:26:28;102284.52;;;9.18;92.41
58967;BME280;44744;51.894;5.080;2023-02-18T01:27:31;102285.73;;;9.19;92.47
58967;BME280;44744;51.894;5.080;2023-02-18T01:28:32;102285.18;;;9.20;92.46
58967;BME280;44744;51.894;5.080;2023-02-18T01:29:36;102282.83;;;9.22;92.54
58967;BME280;44744;51.894;5.080;2023-02-18T01:30:36;102282.48;;;9.22;92.56
58967;BME280;44744;51.894;5.080;2023-02-18T01:31:37;102281.39;;;9.23;92.61
58967;BME280;44744;51.894;5.080;2023-02-18T01:33:07;102283.69;;;9.23;92.61
58967;BME280;44744;51.894;5.080;2023-02-18T01:34:07;102280.31;;;9.24;92.68
58967;BME280;44744;51.894;5.080;2023-02-18T01:35:11;102279.60;;;9.25;92.62
58967;BME280;44744;51.894;5.080;2023-02-18T01:36:12;102283.45;;;9.26;92.72
58967;BME280;44744;51.894;5.080;2023-02-18T01:37:12;102279.90;;;9.27;92.70
58967;BME280;44744;51.894;5.080;2023-02-18T01:38:13;102279.52;;;9.27;92.74
58967;BME280;44744;51.894;5.080;2023-02-18T01:39:13;102275.42;;;9.29;92.74
58967;BME280;44744;51.894;5.080;2023-02-18T01:40:17;102275.05;;;9.29;92.69
58967;BME280;44744;51.894;5.080;2023-02-18T01:41:26;102271.88;;;9.30;92.69
58967;BME280;44744;51.894;5.080;2023-02-18T01:42:28;102271.10;;;9.32;92.81
58967;BME280;44744;51.894;5.080;2023-02-18T01:43:29;102267.04;;;9.32;92.75
58967;BME280;44744;51.894;5.080;2023-02-18T01:44:31;102262.77;;;9.33;92.69
58967;BME280;44744;51.894;5.080;2023-02-18T01:46:32;102262.02;;;9.35;93.03
58967;BME280;44744;51.894;5.080;2023-02-18T01:47:33;102262.17;;;9.35;92.94
58967;BME280;44744;51.894;5.080;2023-02-18T01:48:38;102257.75;;;9.36;92.94
58967;BME280;44744;51.894;5.080;2023-02-18T01:49:41;102258.41;;;9.37;92.91
58967;BME280;44744;51.894;5.080;2023-02-18T01:50:51;102257.18;;;9.38;92.94
58967;BME280;44744;51.894;5.080;2023-02-18T01:51:57;102257.55;;;9.37;93.00
58967;BME280;44744;51.894;5.080;2023-02-18T01:52:59;102257.31;;;9.39;93.01
58967;BME280;44744;51.894;5.080;2023-02-18T01:55:17;102258.79;;;9.43;93.06
58967;BME280;44744;51.894;5.080;2023-02-18T01:56:37;102255.56;;;9.45;93.11
58967;BME280;44744;51.894;5.080;2023-02-18T01:57:40;102252.16;;;9.47;93.14
58967;BME280;44744;51.894;5.080;2023-02-18T01:58:41;102251.77;;;9.48;93.22
58967;BME280;44744;51.894;5.080;2023-02-18T02:00:10;102250.46;;;9.51;93.27
58967;BME280;44744;51.894;5.080;2023-02-18T02:01:25;102245.80;;;9.53;93.25
58967;BME280;44744;51.894;5.080;2023-02-18T02:02:27;102242.23;;;9.54;93.21
58967;BME280;44744;51.894;5.080;2023-02-18T02:03:51;102240.94;;;9.56;93.36
58967;BME280;44744;51.894;5.080;2023-02-18T02:04:57;102242.83;;;9.59;93.52
58967;BME280;44744;51.894;5.080;2023-02-18T02:05:58;102241.71;;;9.60;93.63
58967;BME280;44744;51.894;5.080;2023-02-18T02:06:58;102241.30;;;9.62;93.67
58967;BME280;44744;51.894;5.080;2023-02-18T02:08:00;102242.11;;;9.65;93.83
58967;BME280;44744;51.894;5.080;2023-02-18T02:09:03;102241.02;;;9.66;93.71
58967;BME280;44744;51.894;5.080;2023-02-18T02:10:05;102239.39;;;9.67;93.73
58967;BME280;44744;51.894;5.080;2023-02-18T02:11:13;102238.13;;;9.69;93.88
58967;BME280;44744;51.894;5.080;2023-02-18T02:12:43;102237.71;;;9.70;93.78
58967;BME280;44744;51.894;5.080;2023-02-18T02:23:18;102215.30;;;9.76;93.64
58967;BME280;44744;51.894;5.080;2023-02-18T02:24:29;102209.45;;;9.77;93.60
58967;BME280;44744;51.894;5.080;2023-02-18T02:26:02;102200.75;;;9.78;93.63
58967;BME280;44744;51.894;5.080;2023-02-18T02:29:04;102195.41;;;9.79;93.66
58967;BME280;44744;51.894;5.080;2023-02-18T02:31:57;102188.70;;;9.79;93.43
58967;BME280;44744;51.894;5.080;2023-02-18T02:35:58;102177.46;;;9.77;93.37
58967;BME280;44744;51.894;5.080;2023-02-18T02:40:03;102175.66;;;9.78;93.34
58967;BME280;44744;51.894;5.080;2023-02-18T02:43:14;102171.39;;;9.79;93.35
58967;BME280;44744;51.894;5.080;2023-02-18T02:46:43;102159.34;;;9.80;93.43
58967;BME280;44744;51.894;5.080;2023-02-18T02:48:08;102157.20;;;9.81;93.36
58967;BME280;44744;51.894;5.080;2023-02-18T02:50:53;102150.50;;;9.80;93.24
58967;BME280;44744;51.894;5.080;2023-02-18T02:52:04;102149.48;;;9.79;93.26
58967;BME280;44744;51.894;5.080;2023-02-18T02:53:29;102145.77;;;9.79;93.19
58967;BME280;44744;51.894;5.080;2023-02-18T02:54:48;102136.40;;;9.79;93.23
58967;BME280;44744;51.894;5.080;2023-02-18T02:55:59;102133.64;;;9.77;93.30
58967;BME280;44744;51.894;5.080;2023-02-18T02:58:22;102129.08;;;9.76;93.19
58967;BME280;44744;51.894;5.080;2023-02-18T02:59:24;102124.83;;;9.77;93.11
58967;BME280;44744;51.894;5.080;2023-02-18T03:03:52;102119.19;;;9.76;93.12
58967;BME280;44744;51.894;5.080;2023-02-18T03:05:18;102111.30;;;9.74;93.10
58967;BME280;44744;51.894;5.080;2023-02-18T03:11:19;102107.93;;;9.74;93.13
58967;BME280;44744;51.894;5.080;2023-02-18T03:13:55;102100.52;;;9.74;93.19
58967;BME280;44744;51.894;5.080;2023-02-18T03:16:25;102096.77;;;9.76;93.16
58967;BME280;44744;51.894;5.080;2023-02-18T03:17:30;102093.89;;;9.77;93.22
58967;BME280;44744;51.894;5.080;2023-02-18T03:19:37;102095.58;;;9.80;93.29
58967;BME280;44744;51.894;5.080;2023-02-18T03:20:51;102095.00;;;9.81;93.21
58967;BME280;44744;51.894;5.080;2023-02-18T03:21:57;102089.14;;;9.82;93.18
58967;BME280;44744;51.894;5.080;2023-02-18T03:23:01;102088.99;;;9.81;93.14
58967;BME280;44744;51.894;5.080;2023-02-18T03:24:29;102092.88;;;9.82;93.14
58967;BME280;44744;51.894;5.080;2023-02-18T03:25:31;102094.27;;;9.82;93.18
58967;BME280;44744;51.894;5.080;2023-02-18T03:26:35;102089.52;;;9.81;93.21
58967;BME280;44744;51.894;5.080;2023-02-18T03:27:45;102088.61;;;9.82;93.23
58967;BME280;44744;51.894;5.080;2023-02-18T03:28:50;102084.75;;;9.81;93.27
58967;BME280;44744;51.894;5.080;2023-02-18T03:29:56;102081.22;;;9.82;93.29
58967;BME280;44744;51.894;5.080;2023-02-18T03:31:08;102079.77;;;9.82;93.40
58967;BME280;44744;51.894;5.080;2023-02-18T03:32:21;102078.87;;;9.83;93.44
58967;BME280;44744;51.894;5.080;2023-02-18T03:33:27;102081.88;;;9.83;93.47
58967;BME280;44744;51.894;5.080;2023-02-18T03:34:33;102083.11;;;9.83;93.48
58967;BME280;44744;51.894;5.080;2023-02-18T03:35:36;102082.05;;;9.83;93.49
58967;BME280;44744;51.894;5.080;2023-02-18T03:36:38;102079.20;;;9.84;93.63
58967;BME280;44744;51.894;5.080;2023-02-18T03:37:44;102078.52;;;9.83;93.71
58967;BME280;44744;51.894;5.080;2023-02-18T03:38:53;102077.11;;;9.83;93.78
58967;BME280;44744;51.894;5.080;2023-02-18T03:41:11;102074.63;;;9.83;93.90
58967;BME280;44744;51.894;5.080;2023-02-18T03:42:27;102072.19;;;9.82;93.84
58967;BME280;44744;51.894;5.080;2023-02-18T03:43:28;102068.29;;;9.82;93.90
58967;BME280;44744;51.894;5.080;2023-02-18T03:44:29;102067.02;;;9.83;94.02
58967;BME280;44744;51.894;5.080;2023-02-18T03:45:30;102064.00;;;9.84;94.03
58967;BME280;44744;51.894;5.080;2023-02-18T03:48:08;102056.73;;;9.85;94.05
58967;BME280;44744;51.894;5.080;2023-02-18T03:49:26;102050.34;;;9.85;94.08
58967;BME280;44744;51.894;5.080;2023-02-18T03:50:26;102050.64;;;9.87;94.23
58967;BME280;44744;51.894;5.080;2023-02-18T03:51:27;102047.83;;;9.87;94.16
58967;BME280;44744;51.894;5.080;2023-02-18T03:52:27;102047.09;;;9.87;94.23
58967;BME280;44744;51.894;5.080;2023-02-18T03:53:36;102046.01;;;9.88;94.29
58967;BME280;44744;51.894;5.080;2023-02-18T03:54:37;102040.52;;;9.88;94.41
58967;BME280;44744;51.894;5.080;2023-02-18T03:55:37;102041.75;;;9.88;94.53
58967;BME280;44744;51.894;5.080;2023-02-18T03:56:46;102043.33;;;9.89;94.48
58967;BME280;44744;51.894;5.080;2023-02-18T03:57:46;102043.84;;;9.89;94.44
58967;BME280;44744;51.894;5.080;2023-02-18T03:58:47;102043.31;;;9.89;94.54
58967;BME280;44744;51.894;5.080;2023-02-18T03:59:50;102040.34;;;9.88;94.38
58967;BME280;44744;51.894;5.080;2023-02-18T04:00:50;102040.13;;;9.89;94.42
58967;BME280;44744;51.894;5.080;2023-02-18T04:01:53;102037.64;;;9.90;94.43
58967;BME280;44744;51.894;5.080;2023-02-18T04:02:53;102036.21;;;9.91;94.50
58967;BME280;44744;51.894;5.080;2023-02-18T04:03:54;102035.86;;;9.91;94.55
58967;BME280;44744;51.894;5.080;2023-02-18T04:04:54;102031.94;;;9.92;94.50
58967;BME280;44744;51.894;5.080;2023-02-18T04:05:54;102031.39;;;9.92;94.49
58967;BME280;44744;51.894;5.080;2023-02-18T04:06:55;102032.39;;;9.94;94.46
58967;BME280;44744;51.894;5.080;2023-02-18T04:07:55;102028.33;;;9.94;94.50
58967;BME280;44744;51.894;5.080;2023-02-18T04:08:59;102025.52;;;9.94;94.51
58967;BME280;44744;51.894;5.080;2023-02-18T04:09:59;102020.73;;;9.94;94.55
58967;BME280;44744;51.894;5.080;2023-02-18T04:10:59;102022.31;;;9.94;94.50
58967;BME280;44744;51.894;5.080;2023-02-18T04:12:00;102022.50;;;9.94;94.53
58967;BME280;44744;51.894;5.080;2023-02-18T04:13:00;102021.63;;;9.94;94.52
58967;BME280;44744;51.894;5.080;2023-02-18T04:14:01;102019.51;;;9.94;94.48
58967;BME280;44744;51.894;5.080;2023-02-18T04:15:01;102018.79;;;9.94;94.48
58967;BME280;44744;51.894;5.080;2023-02-18T04:17:41;102018.88;;;9.91;94.59
58967;BME280;44744;51.894;5.080;2023-02-18T04:18:41;102016.61;;;9.90;94.66
58967;BME280;44744;51.894;5.080;2023-02-18T04:19:41;102018.16;;;9.92;94.76
58967;BME280;44744;51.894;5.080;2023-02-18T04:20:42;102019.09;;;9.90;94.72
58967;BME280;44744;51.894;5.080;2023-02-18T04:21:42;102020.52;;;9.89;94.69
58967;BME280;44744;51.894;5.080;2023-02-18T04:22:42;102021.81;;;9.88;94.74
58967;BME280;44744;51.894;5.080;2023-02-18T04:24:12;102020.41;;;9.87;94.57
58967;BME280;44744;51.894;5.080;2023-02-18T04:25:12;102022.41;;;9.86;94.68
58967;BME280;44744;51.894;5.080;2023-02-18T04:26:13;102026.30;;;9.86;94.70
58967;BME280;44744;51.894;5.080;2023-02-18T04:27:15;102012.02;;;9.85;94.75
58967;BME280;44744;51.894;5.080;2023-02-18T04:28:16;102011.45;;;9.86;94.76
58967;BME280;44744;51.894;5.080;2023-02-18T04:29:16;102011.69;;;9.84;94.72
58967;BME280;44744;51.894;5.080;2023-02-18T04:30:20;102009.54;;;9.85;94.83
58967;BME280;44744;51.894;5.080;2023-02-18T04:31:20;102009.75;;;9.84;94.80
58967;BME280;44744;51.894;5.080;2023-02-18T04:32:20;102015.59;;;9.83;94.83
58967;BME280;44744;51.894;5.080;2023-02-18T04:33:21;102017.70;;;9.84;94.91
58967;BME280;44744;51.894;5.080;2023-02-18T04:34:21;102014.02;;;9.83;94.86
58967;BME280;44744;51.894;5.080;2023-02-18T04:35:22;102017.39;;;9.83;94.83
58967;BME280;44744;51.894;5.080;2023-02-18T04:36:25;102018.11;;;9.82;94.92
58967;BME280;44744;51.894;5.080;2023-02-18T04:37:25;102014.64;;;9.81;94.79
58967;BME280;44744;51.894;5.080;2023-02-18T04:38:26;102017.64;;;9.81;94.89
58967;BME280;44744;51.894;5.080;2023-02-18T04:39:26;102014.45;;;9.81;94.94
58967;BME280;44744;51.894;5.080;2023-02-18T04:40:26;102014.84;;;9.80;94.89
58967;BME280;44744;51.894;5.080;2023-02-18T04:41:36;102013.23;;;9.80;94.90
58967;BME280;44744;51.894;5.080;2023-02-18T04:42:39;102015.51;;;9.81;94.90
58967;BME280;44744;51.894;5.080;2023-02-18T04:43:45;102011.13;;;9.80;95.07
58967;BME280;44744;51.894;5.080;2023-02-18T04:44:45;102008.70;;;9.79;94.97
58967;BME280;44744;51.894;5.080;2023-02-18T04:45:45;102006.58;;;9.78;95.01
58967;BME280;44744;51.894;5.080;2023-02-18T04:46:46;102010.11;;;9.78;94.97
58967;BME280;44744;51.894;5.080;2023-02-18T04:47:47;102012.77;;;9.78;94.87
58967;BME280;44744;51.894;5.080;2023-02-18T04:48:47;102010.64;;;9.79;94.95
58967;BME280;44744;51.894;5.080;2023-02-18T04:49:47;102009.61;;;9.78;94.94
58967;BME280;44744;51.894;5.080;2023-02-18T04:50:48;102009.05;;;9.78;94.97
58967;BME280;44744;51.894;5.080;2023-02-18T04:51:48;102004.45;;;9.79;95.10
58967;BME280;44744;51.894;5.080;2023-02-18T04:52:49;102002.70;;;9.78;94.98
58967;BME280;44744;51.894;5.080;2023-02-18T04:53:49;101999.17;;;9.78;95.04
58967;BME280;44744;51.894;5.080;2023-02-18T04:54:50;101999.88;;;9.78;95.08
58967;BME280;44744;51.894;5.080;2023-02-18T04:55:51;101996.86;;;9.78;95.11
58967;BME280;44744;51.894;5.080;2023-02-18T04:56:51;101996.16;;;9.79;95.16
58967;BME280;44744;51.894;5.080;2023-02-18T04:57:52;101995.11;;;9.78;95.13
58967;BME280;44744;51.894;5.080;2023-02-18T05:00:14;101990.39;;;9.77;95.03
58967;BME280;44744;51.894;5.080;2023-02-18T05:00:40;101986.43;;;9.73;95.17
58967;BME280;44744;51.894;5.080;2023-02-18T05:01:50;101978.52;;;9.72;95.20
58967;BME280;44744;51.894;5.080;2023-02-18T05:02:50;101978.54;;;9.71;95.14
58967;BME280;44744;51.894;5.080;2023-02-18T05:03:51;101973.44;;;9.71;95.15
58967;BME280;44744;51.894;5.080;2023-02-18T05:04:51;101974.38;;;9.69;95.05
58967;BME280;44744;51.894;5.080;2023-02-18T05:05:54;101974.52;;;9.70;95.07
58967;BME280;44744;51.894;5.080;2023-02-18T05:06:54;101972.05;;;9.70;95.09
58967;BME280;44744;51.894;5.080;2023-02-18T05:07:55;101976.52;;;9.69;95.07
58967;BME280;44744;51.894;5.080;2023-02-18T05:08:55;101968.77;;;9.68;94.98
58967;BME280;44744;51.894;5.080;2023-02-18T05:09:55;101971.83;;;9.66;94.94
58967;BME280;44744;51.894;5.080;2023-02-18T05:11:14;101975.56;;;9.66;95.02
58967;BME280;44744;51.894;5.080;2023-02-18T05:12:15;101974.57;;;9.64;94.91
58967;BME280;44744;51.894;5.080;2023-02-18T05:13:15;101977.80;;;9.62;94.90
58967;BME280;44744;51.894;5.080;2023-02-18T05:14:16;101973.37;;;9.62;94.87
58967;BME280;44744;51.894;5.080;2023-02-18T05:15:16;101973.01;;;9.63;94.90
58967;BME280;44744;51.894;5.080;2023-02-18T05:16:16;101976.23;;;9.62;94.82
58967;BME280;44744;51.894;5.080;2023-02-18T05:17:17;101977.33;;;9.60;94.87
58967;BME280;44744;51.894;5.080;2023-02-18T05:18:19;101982.98;;;9.60;94.77
58967;BME280;44744;51.894;5.080;2023-02-18T05:19:20;101983.42;;;9.58;94.75
58967;BME280;44744;51.894;5.080;2023-02-18T05:20:20;101988.73;;;9.57;94.73
58967;BME280;44744;51.894;5.080;2023-02-18T05:21:20;101985.73;;;9.57;94.66
58967;BME280;44744;51.894;5.080;2023-02-18T05:22:21;101984.92;;;9.54;94.65
58967;BME280;44744;51.894;5.080;2023-02-18T05:23:21;101984.23;;;9.54;94.62
58967;BME280;44744;51.894;5.080;2023-02-18T05:24:21;101987.64;;;9.53;94.66
58967;BME280;44744;51.894;5.080;2023-02-18T05:25:22;101984.99;;;9.52;94.68
58967;BME280;44744;51.894;5.080;2023-02-18T05:26:24;101985.89;;;9.52;94.57
58967;BME280;44744;51.894;5.080;2023-02-18T05:27:25;101982.96;;;9.50;94.59
58967;BME280;44744;51.894;5.080;2023-02-18T05:28:25;101984.23;;;9.49;94.50
58967;BME280;44744;51.894;5.080;2023-02-18T05:29:25;101983.89;;;9.49;94.48
58967;BME280;44744;51.894;5.080;2023-02-18T05:30:26;101980.71;;;9.48;94.61
58967;BME280;44744;51.894;5.080;2023-02-18T05:31:27;101977.92;;;9.47;94.56
58967;BME280;44744;51.894;5.080;2023-02-18T05:32:27;101975.79;;;9.48;94.61
58967;BME280;44744;51.894;5.080;2023-02-18T05:33:28;101978.30;;;9.46;94.51
58967;BME280;44744;51.894;5.080;2023-02-18T05:34:28;101979.91;;;9.46;94.58
58967;BME280;44744;51.894;5.080;2023-02-18T05:35:31;101977.46;;;9.45;94.62
58967;BME280;44744;51.894;5.080;2023-02-18T05:36:32;101975.74;;;9.44;94.53
58967;BME280;44744;51.894;5.080;2023-02-18T05:37:32;101973.48;;;9.43;94.60
58967;BME280;44744;51.894;5.080;2023-02-18T05:38:32;101971.52;;;9.44;94.67
58967;BME280;44744;51.894;5.080;2023-02-18T05:39:33;101975.42;;;9.43;94.68
58967;BME280;44744;51.894;5.080;2023-02-18T05:40:33;101972.08;;;9.42;94.59
58967;BME280;44744;51.894;5.080;2023-02-18T05:41:33;101968.05;;;9.41;94.56
58967;BME280;44744;51.894;5.080;2023-02-18T05:42:37;101968.36;;;9.42;94.59
58967;BME280;44744;51.894;5.080;2023-02-18T05:43:37;101968.04;;;9.41;94.64
58967;BME280;44744;51.894;5.080;2023-02-18T05:44:40;101976.02;;;9.40;94.57
58967;BME280;44744;51.894;5.080;2023-02-18T05:45:40;101971.95;;;9.41;94.78
58967;BME280;44744;51.894;5.080;2023-02-18T05:46:43;101967.70;;;9.41;94.77
58967;BME280;44744;51.894;5.080;2023-02-18T05:47:44;101963.54;;;9.39;94.67
58967;BME280;44744;51.894;5.080;2023-02-18T05:48:44;101965.27;;;9.40;94.83
58967;BME280;44744;51.894;5.080;2023-02-18T05:49:44;101960.17;;;9.39;94.76
58967;BME280;44744;51.894;5.080;2023-02-18T05:50:45;101953.66;;;9.38;94.77
58967;BME280;44744;51.894;5.080;2023-02-18T05:51:45;101956.49;;;9.38;94.76
58967;BME280;44744;51.894;5.080;2023-02-18T05:52:45;101954.73;;;9.38;94.81
58967;BME280;44744;51.894;5.080;2023-02-18T05:53:46;101959.84;;;9.38;94.77
58967;BME280;44744;51.894;5.080;2023-02-18T05:54:46;101957.18;;;9.39;94.82
58967;BME280;44744;51.894;5.080;2023-02-18T05:55:47;101959.82;;;9.39;94.78
58967;BME280;44744;51.894;5.080;2023-02-18T05:56:47;101957.33;;;9.39;94.83
58967;BME280;44744;51.894;5.080;2023-02-18T05:57:50;101958.02;;;9.40;94.85
58967;BME280;44744;51.894;5.080;2023-02-18T05:58:51;101955.35;;;9.41;94.99
58967;BME280;44744;51.894;5.080;2023-02-18T05:59:51;101953.91;;;9.41;94.88
58967;BME280;44744;51.894;5.080;2023-02-18T06:00:51;101945.96;;;9.42;94.90
58967;BME280;44744;51.894;5.080;2023-02-18T06:01:52;101941.17;;;9.42;94.84
58967;BME280;44744;51.894;5.080;2023-02-18T06:02:52;101941.69;;;9.43;94.94
58967;BME280;44744;51.894;5.080;2023-02-18T06:03:53;101943.30;;;9.42;95.05
58967;BME280;44744;51.894;5.080;2023-02-18T06:04:53;101941.33;;;9.43;94.97
58967;BME280;44744;51.894;5.080;2023-02-18T06:05:56;101944.90;;;9.42;94.99
58967;BME280;44744;51.894;5.080;2023-02-18T06:06:57;101945.10;;;9.41;94.95
58967;BME280;44744;51.894;5.080;2023-02-18T06:07:57;101945.30;;;9.40;94.97
58967;BME280;44744;51.894;5.080;2023-02-18T06:08:57;101940.01;;;9.40;94.90
58967;BME280;44744;51.894;5.080;2023-02-18T06:09:58;101934.90;;;9.40;95.01
58967;BME280;44744;51.894;5.080;2023-02-18T06:10:58;101937.72;;;9.40;94.89
58967;BME280;44744;51.894;5.080;2023-02-18T06:11:59;101936.29;;;9.41;95.01
58967;BME280;44744;51.894;5.080;2023-02-18T06:12:59;101930.10;;;9.41;95.15
58967;BME280;44744;51.894;5.080;2023-02-18T06:13:59;101930.48;;;9.40;95.15
58967;BME280;44744;51.894;5.080;2023-02-18T06:15:00;101930.66;;;9.40;95.09
58967;BME280;44744;51.894;5.080;2023-02-18T06:16:00;101930.16;;;9.39;95.00
58967;BME280;44744;51.894;5.080;2023-02-18T06:17:00;101933.02;;;9.38;95.03
58967;BME280;44744;51.894;5.080;2023-02-18T06:18:00;101941.11;;;9.39;95.09
58967;BME280;44744;51.894;5.080;2023-02-18T06:19:01;101940.20;;;9.40;95.09
58967;BME280;44744;51.894;5.080;2023-02-18T06:20:01;101937.19;;;9.40;95.12
58967;BME280;44744;51.894;5.080;2023-02-18T06:21:02;101933.33;;;9.39;95.07
58967;BME280;44744;51.894;5.080;2023-02-18T06:22:03;101930.66;;;9.40;95.15
58967;BME280;44744;51.894;5.080;2023-02-18T06:23:04;101926.98;;;9.39;95.09
58967;BME280;44744;51.894;5.080;2023-02-18T06:24:04;101933.68;;;9.39;95.17
58967;BME280;44744;51.894;5.080;2023-02-18T06:25:05;101931.03;;;9.39;95.15
58967;BME280;44744;51.894;5.080;2023-02-18T06:26:06;101928.78;;;9.38;95.15
58967;BME280;44744;51.894;5.080;2023-02-18T06:27:06;101926.88;;;9.37;95.17
58967;BME280;44744;51.894;5.080;2023-02-18T06:28:07;101927.39;;;9.37;95.03
58967;BME280;44744;51.894;5.080;2023-02-18T06:29:07;101930.34;;;9.39;95.12
58967;BME280;44744;51.894;5.080;2023-02-18T06:30:08;101933.31;;;9.39;95.19
58967;BME280;44744;51.894;5.080;2023-02-18T06:31:09;101935.31;;;9.38;95.16
58967;BME280;44744;51.894;5.080;2023-02-18T06:32:09;101937.44;;;9.38;95.14
58967;BME280;44744;51.894;5.080;2023-02-18T06:33:10;101934.08;;;9.38;95.11
58967;BME280;44744;51.894;5.080;2023-02-18T06:34:10;101930.54;;;9.38;95.23
58967;BME280;44744;51.894;5.080;2023-02-18T06:35:10;101931.44;;;9.38;95.19